Alvadore, Oregon
Current Conditions -  °F | °C
As of 6:54 PM on Saturday 22 Nov 2014 (Local Time) from KEUG Reporting Station
Overcast Overcast  
Wind Chill:   Ceiling: 6000
Heat Index:   Visibility: 10mi
Dew Point:   Wind: 6mph
Humidity: 89%   Direction: 230°SW
Pressure: 30.21"   Gusts: NA
Location:  44.13°N, 123.26°W
Report Text: KEUG 230254Z 23005KT 10SM SCT045 OVC060 08/06 A3021 RMK AO2 SLP231 60000 T00780061 52028
Loading
Personal Weather Stations






























Interactive Weather Map New forecast layout! Learn more

10-Day Weather Forecast

Advertisements
Track Severe Weather on mobile